Time;durP1;ratioP1;P1;durP2;ratioP2;P2;SDS_P1;SDS_P2;PMS_P1;PMS_P2;Temp;Humidity;BMP_temperature;BMP_pressure;BME280_temperature;BME280_humidity;BME280_pressure;Samples;Min_cycle;Max_cycle;Signal;HPM_P1;HPM_P2
2021/04/11 00:01:59;;;;;;;1.73;1.63;;;14.60;64.90;;;;;;5116953;28;20212;-74
2021/04/11 00:04:26;;;;;;;1.58;1.40;;;14.60;66.10;;;;;;5116873;28;20205;-73
2021/04/11 00:06:53;;;;;;;1.40;1.30;;;14.60;67.00;;;;;;5116616;28;20830;-73
2021/04/11 00:09:19;;;;;;;1.73;1.63;;;14.60;65.90;;;;;;5116742;28;20562;-74
2021/04/11 00:11:46;;;;;;;3.05;2.13;;;14.50;66.80;;;;;;5116914;28;20197;-74
2021/04/11 00:14:12;;;;;;;2.53;2.33;;;14.50;66.60;;;;;;5116808;28;20205;-74
2021/04/11 00:16:38;;;;;;;2.53;2.33;;;14.40;66.40;;;;;;5116339;28;20201;-73
2021/04/11 00:19:05;;;;;;;2.25;1.90;;;14.40;66.60;;;;;;5116728;28;20292;-74
2021/04/11 00:21:31;;;;;;;2.13;1.90;;;14.40;66.80;;;;;;5115845;28;20767;-74
2021/04/11 00:23:58;;;;;;;1.55;1.45;;;14.40;66.90;;;;;;5118820;28;20664;-74
2021/04/11 00:26:25;;;;;;;2.08;1.80;;;14.40;66.70;;;;;;5117827;28;20247;-73
2021/04/11 00:28:51;;;;;;;2.00;1.67;;;14.40;66.80;;;;;;5117983;28;20373;-74
2021/04/11 00:31:17;;;;;;;2.78;1.90;;;14.40;67.40;;;;;;5117850;28;20308;-74
2021/04/11 00:33:44;;;;;;;1.67;1.58;;;14.30;67.30;;;;;;5117842;28;20257;-74
2021/04/11 00:36:13;;;;;;;1.80;1.67;;;14.20;67.80;;;;;;5118091;28;20225;-73
2021/04/11 00:38:40;;;;;;;2.20;2.00;;;14.20;67.90;;;;;;5118290;28;20202;-74
2021/04/11 00:41:14;;;;;;;3.78;1.67;;;14.20;67.90;;;;;;5118009;28;20335;-74
2021/04/11 00:43:41;;;;;;;1.60;1.45;;;14.10;67.80;;;;;;5118274;28;20269;-74
2021/04/11 00:46:21;;;;;;;3.45;1.77;;;14.10;68.30;;;;;;5117334;28;20320;-73
2021/04/11 00:48:48;;;;;;;1.73;1.60;;;14.10;68.70;;;;;;5118087;28;20740;-74
2021/04/11 00:51:17;;;;;;;1.75;1.65;;;14.10;68.50;;;;;;5117417;28;20308;-74
2021/04/11 00:53:44;;;;;;;2.03;1.52;;;13.90;69.90;;;;;;5117086;28;20198;-74
2021/04/11 00:56:12;;;;;;;1.50;1.40;;;13.80;69.90;;;;;;5116600;28;20224;-73
2021/04/11 00:58:40;;;;;;;1.35;1.25;;;13.80;70.00;;;;;;5116500;28;20289;-73
2021/04/11 01:01:07;;;;;;;1.88;1.77;;;13.60;70.80;;;;;;5116817;28;20228;-74
2021/04/11 01:03:36;;;;;;;1.70;1.60;;;13.50;71.20;;;;;;5115797;28;20672;-74
2021/04/11 01:06:03;;;;;;;1.60;1.50;;;13.50;70.60;;;;;;5115713;28;20704;-73
2021/04/11 01:08:33;;;;;;;1.63;1.52;;;13.40;71.20;;;;;;5115444;28;20664;-74
2021/04/11 01:11:05;;;;;;;1.90;1.80;;;13.30;70.50;;;;;;5115663;28;20221;-74
2021/04/11 01:13:33;;;;;;;2.10;1.80;;;13.20;70.00;;;;;;5115896;28;20630;-74
2021/04/11 01:16:01;;;;;;;2.17;1.90;;;13.10;70.60;;;;;;5115557;28;20198;-73
2021/04/11 01:18:27;;;;;;;2.35;1.60;;;13.10;71.60;;;;;;5115403;28;20222;-74
2021/04/11 01:20:55;;;;;;;3.05;1.63;;;13.20;73.10;;;;;;5115515;28;20227;-74
2021/04/11 01:23:34;;;;;;;1.60;1.50;;;13.20;73.90;;;;;;5116084;28;20205;-74
2021/04/11 01:26:02;;;;;;;1.77;1.52;;;13.30;73.70;;;;;;5115280;28;20696;-73
2021/04/11 01:28:31;;;;;;;3.70;2.40;;;13.30;73.10;;;;;;5115519;28;20743;-74
2021/04/11 01:31:05;;;;;;;2.63;2.42;;;13.30;74.10;;;;;;5115422;28;20708;-74
2021/04/11 01:33:34;;;;;;;2.78;2.22;;;13.40;74.00;;;;;;5115200;28;20224;-73
2021/04/11 01:36:02;;;;;;;2.40;2.20;;;13.50;73.60;;;;;;5114905;28;20293;-73
2021/04/11 01:38:29;;;;;;;2.80;2.53;;;13.50;74.50;;;;;;5115168;28;20201;-74
2021/04/11 01:41:01;;;;;;;2.70;2.50;;;13.40;73.40;;;;;;5115028;28;20742;-74
2021/04/11 01:43:29;;;;;;;3.45;2.97;;;13.40;74.60;;;;;;5115184;28;20367;-74
2021/04/11 01:45:57;;;;;;;5.03;2.78;;;13.30;73.10;;;;;;5115025;28;20226;-73
2021/04/11 01:48:24;;;;;;;3.22;2.92;;;13.10;73.50;;;;;;5114916;28;20222;-74
2021/04/11 01:50:52;;;;;;;3.53;3.10;;;13.10;74.60;;;;;;5114684;28;20231;-74
2021/04/11 01:53:20;;;;;;;4.03;3.30;;;13.10;75.70;;;;;;5114957;28;20238;-74
2021/04/11 01:55:46;;;;;;;3.72;2.40;;;13.10;74.90;;;;;;5114702;28;20212;-73
2021/04/11 01:58:13;;;;;;;3.13;2.83;;;13.10;76.40;;;;;;5114830;28;20288;-74
2021/04/11 02:00:43;;;;;;;3.50;2.70;;;13.10;75.40;;;;;;5114672;28;20777;-74
2021/04/11 02:03:12;;;;;;;2.90;2.60;;;13.10;74.60;;;;;;5114665;28;20729;-74
2021/04/11 02:05:40;;;;;;;3.45;2.95;;;13.10;75.60;;;;;;5114392;28;20217;-73
2021/04/11 02:08:08;;;;;;;3.72;2.75;;;13.10;76.80;;;;;;5114791;28;20617;-74
2021/04/11 02:10:37;;;;;;;3.08;2.70;;;12.90;75.80;;;;;;5114942;28;20263;-74
2021/04/11 02:13:04;;;;;;;3.17;2.58;;;12.90;77.70;;;;;;5114813;28;20201;-74
2021/04/11 02:15:35;;;;;;;3.97;2.30;;;13.00;77.50;;;;;;5114560;28;20292;-73
2021/04/11 02:18:03;;;;;;;3.35;2.30;;;13.00;76.20;;;;;;5114601;28;20206;-74
2021/04/11 02:20:31;;;;;;;4.60;2.58;;;13.10;77.90;;;;;;5114549;28;20225;-74
2021/04/11 02:22:58;;;;;;;2.58;2.38;;;13.20;78.70;;;;;;5115041;28;20288;-74
2021/04/11 02:25:27;;;;;;;3.97;2.35;;;13.30;77.90;;;;;;5114482;28;20308;-73
2021/04/11 02:27:55;;;;;;;3.15;2.30;;;13.30;77.00;;;;;;5115241;28;20228;-74
2021/04/11 02:30:23;;;;;;;2.63;2.42;;;13.40;77.40;;;;;;5115298;28;20260;-74
2021/04/11 02:32:52;;;;;;;2.53;1.92;;;13.50;77.80;;;;;;5115430;28;20296;-74
2021/04/11 02:35:24;;;;;;;2.53;2.22;;;13.50;77.80;;;;;;5114921;28;20254;-73
2021/04/11 02:37:55;;;;;;;2.33;1.80;;;13.50;78.90;;;;;;5114879;28;20197;-74
2021/04/11 02:40:25;;;;;;;2.78;2.00;;;13.50;78.80;;;;;;5115766;28;20621;-73
2021/04/11 02:42:51;;;;;;;2.45;1.98;;;13.60;79.20;;;;;;5115338;28;20185;-74
2021/04/11 02:45:22;;;;;;;1.80;1.70;;;13.60;80.00;;;;;;5117036;28;20225;-73
2021/04/11 02:47:51;;;;;;;2.38;2.00;;;13.60;80.40;;;;;;5119321;28;20287;-74
2021/04/11 02:50:18;;;;;;;2.88;2.30;;;13.60;80.90;;;;;;5118242;28;20786;-74
2021/04/11 02:52:52;;;;;;;2.65;2.03;;;13.50;81.80;;;;;;5118453;28;20664;-73
2021/04/11 02:55:19;;;;;;;2.60;2.03;;;13.50;80.80;;;;;;5118500;28;20254;-73
2021/04/11 02:57:46;;;;;;;2.55;1.95;;;13.40;82.20;;;;;;5118436;28;20282;-74
2021/04/11 03:00:18;;;;;;;2.25;2.05;;;13.20;83.40;;;;;;5118519;28;20422;-74
2021/04/11 03:02:45;;;;;;;1.73;1.63;;;13.30;84.20;;;;;;5118940;28;20250;-74
2021/04/11 03:05:13;;;;;;;2.20;2.00;;;13.40;83.60;;;;;;5118879;28;20654;-74
2021/04/11 03:07:45;;;;;;;4.88;1.92;;;13.40;83.30;;;;;;5117967;28;20205;-73
2021/04/11 03:10:19;;;;;;;1.73;1.60;;;13.10;85.30;;;;;;5118110;28;20271;-73
2021/04/11 03:12:47;;;;;;;1.90;1.80;;;13.10;84.70;;;;;;5118417;28;20261;-74
2021/04/11 03:15:14;;;;;;;1.65;1.55;;;13.20;85.00;;;;;;5118399;27;20201;-74
2021/04/11 03:17:42;;;;;;;2.03;1.92;;;13.20;84.70;;;;;;5117597;28;20717;-73
2021/04/11 03:20:13;;;;;;;2.13;1.92;;;13.00;82.70;;;;;;5118004;28;20221;-73
2021/04/11 03:22:41;;;;;;;2.75;1.95;;;13.10;83.50;;;;;;5118816;28;20192;-74
2021/04/11 03:25:10;;;;;;;2.47;1.80;;;13.20;82.80;;;;;;5117916;28;20202;-74
2021/04/11 03:27:38;;;;;;;2.53;2.33;;;13.10;83.00;;;;;;5117618;28;20614;-73
2021/04/11 03:30:08;;;;;;;3.50;1.70;;;13.10;84.10;;;;;;5117637;28;20615;-74
2021/04/11 03:32:40;;;;;;;2.22;2.03;;;13.10;84.20;;;;;;5117214;28;20288;-74
2021/04/11 03:35:09;;;;;;;1.90;1.67;;;13.10;81.90;;;;;;5117782;28;20252;-74
2021/04/11 03:37:37;;;;;;;1.92;1.80;;;13.00;82.90;;;;;;5117038;28;20242;-73
2021/04/11 03:40:09;;;;;;;2.85;2.08;;;13.00;84.20;;;;;;5117759;28;20221;-74
2021/04/11 03:42:39;;;;;;;2.80;1.92;;;12.90;84.20;;;;;;5117585;28;20236;-74
2021/04/11 03:45:06;;;;;;;2.97;2.42;;;13.00;84.60;;;;;;5117703;28;20218;-74
2021/04/11 03:47:38;;;;;;;2.17;1.95;;;13.00;85.60;;;;;;5117159;28;20292;-73
2021/04/11 03:50:08;;;;;;;2.45;1.85;;;12.80;84.30;;;;;;5117378;28;20221;-73
2021/04/11 03:52:40;;;;;;;3.10;2.00;;;12.90;84.50;;;;;;5117034;28;20208;-74
2021/04/11 03:55:11;;;;;;;2.25;2.03;;;12.90;84.00;;;;;;5116851;28;20280;-74
2021/04/11 03:57:47;;;;;;;1.75;1.58;;;13.00;85.30;;;;;;5117058;28;20288;-73
2021/04/11 04:00:15;;;;;;;2.72;2.20;;;13.00;84.60;;;;;;5116757;28;20311;-73
2021/04/11 04:02:45;;;;;;;3.83;2.15;;;12.80;84.70;;;;;;5116838;28;20334;-74
2021/04/11 04:05:17;;;;;;;5.70;2.70;;;12.80;85.30;;;;;;5117043;28;20197;-73
2021/04/11 04:07:48;;;;;;;3.42;2.35;;;12.90;86.70;;;;;;5116823;28;20288;-73
2021/04/11 04:10:18;;;;;;;2.60;2.40;;;12.90;86.90;;;;;;5116746;28;20311;-73
2021/04/11 04:13:04;;;;;;;2.50;2.30;;;12.90;87.80;;;;;;5116984;27;20198;-73
2021/04/11 04:15:44;;;;;;;3.05;2.55;;;12.70;87.40;;;;;;5116534;28;20206;-72
2021/04/11 04:18:45;;;;;;;2.58;2.05;;;12.80;88.60;;;;;;5116453;28;20240;-73
2021/04/11 04:21:34;;;;;;;2.20;2.05;;;12.60;89.00;;;;;;5116284;28;20304;-73
2021/04/11 04:24:10;;;;;;;2.53;1.88;;;12.60;89.20;;;;;;5105659;28;20223;-73
2021/04/11 04:26:49;;;;;;;2.63;2.30;;;12.60;88.80;;;;;;5116016;28;20217;-73
2021/04/11 04:29:33;;;;;;;2.55;2.35;;;12.50;89.30;;;;;;5116098;28;20211;-73
2021/04/11 04:32:19;;;;;;;5.68;2.10;;;12.50;89.90;;;;;;5115057;28;20292;-74
2021/04/11 04:34:55;;;;;;;3.65;2.38;;;12.60;88.90;;;;;;5115936;28;20211;-74
2021/04/11 04:37:29;;;;;;;2.50;2.30;;;12.50;89.20;;;;;;5116049;28;20287;-72
2021/04/11 04:40:00;;;;;;;3.28;2.63;;;12.50;89.50;;;;;;5115918;28;20311;-73
2021/04/11 04:42:36;;;;;;;3.67;2.25;;;12.50;90.30;;;;;;5116193;28;20204;-73
2021/04/11 04:45:10;;;;;;;2.50;2.25;;;12.30;89.60;;;;;;5115586;28;20209;-73
2021/04/11 04:47:45;;;;;;;2.90;2.45;;;12.40;90.30;;;;;;5115650;28;20226;-73
2021/04/11 04:50:18;;;;;;;2.60;2.40;;;12.40;89.50;;;;;;5115753;28;20311;-73
2021/04/11 04:52:48;;;;;;;2.70;2.50;;;12.40;89.40;;;;;;5115616;28;20656;-73
2021/04/11 04:55:20;;;;;;;3.72;2.30;;;12.50;90.10;;;;;;5115611;28;20650;-73
2021/04/11 04:57:54;;;;;;;2.85;2.50;;;12.50;88.90;;;;;;5114409;28;20334;-73
2021/04/11 05:00:24;;;;;;;2.60;2.10;;;12.50;88.60;;;;;;5115524;28;20259;-73
2021/04/11 05:02:58;;;;;;;3.65;2.90;;;12.50;90.00;;;;;;5115750;28;20229;-73
2021/04/11 05:05:26;;;;;;;3.10;2.58;;;12.60;90.20;;;;;;5115122;28;20217;-73
2021/04/11 05:07:57;;;;;;;3.47;2.90;;;12.40;90.20;;;;;;5114796;28;20292;-73
2021/04/11 05:10:28;;;;;;;3.85;2.65;;;12.50;91.00;;;;;;5115399;28;20243;-73
2021/04/11 05:13:02;;;;;;;4.47;2.75;;;12.60;91.20;;;;;;5115464;28;20185;-73
2021/04/11 05:15:33;;;;;;;4.18;2.80;;;12.60;90.90;;;;;;5115022;28;20246;-72
2021/04/11 05:18:06;;;;;;;3.28;2.97;;;12.70;91.00;;;;;;5115256;28;20292;-73
2021/04/11 05:20:35;;;;;;;3.65;2.80;;;12.80;91.20;;;;;;5115295;28;20259;-73
2021/04/11 05:23:12;;;;;;;3.38;2.60;;;12.70;90.70;;;;;;5116372;28;20365;-73
2021/04/11 05:25:45;;;;;;;3.42;2.85;;;12.60;90.50;;;;;;5115062;28;20312;-72
2021/04/11 05:28:19;;;;;;;2.70;2.30;;;12.60;90.60;;;;;;5115603;28;20186;-73
2021/04/11 05:30:50;;;;;;;3.33;2.30;;;12.60;91.20;;;;;;5114691;28;20737;-73
2021/04/11 05:33:20;;;;;;;2.75;2.40;;;12.70;91.50;;;;;;5115059;28;20205;-73
2021/04/11 05:35:47;;;;;;;4.88;3.38;;;12.80;91.50;;;;;;5114706;28;20720;-72
2021/04/11 05:38:24;;;;;;;5.38;4.15;;;12.90;91.00;;;;;;5114823;28;20288;-74
2021/04/11 05:40:54;;;;;;;11.43;3.50;;;12.90;91.10;;;;;;5115198;28;20221;-74
2021/04/11 05:43:27;;;;;;;7.28;3.90;;;12.80;90.50;;;;;;5114707;28;20292;-73
2021/04/11 05:46:01;;;;;;;5.00;3.00;;;12.80;91.20;;;;;;5114853;28;20331;-73
2021/04/11 05:48:34;;;;;;;4.10;3.00;;;12.80;90.80;;;;;;5114973;28;20295;-73
2021/04/11 05:51:04;;;;;;;2.67;2.47;;;12.70;91.30;;;;;;5115023;28;20252;-73
2021/04/11 05:53:36;;;;;;;5.07;3.17;;;12.80;91.70;;;;;;5114704;28;20211;-73
2021/04/11 05:56:05;;;;;;;4.35;3.90;;;12.90;92.80;;;;;;5114646;28;20732;-72
2021/04/11 05:58:38;;;;;;;4.70;2.65;;;13.00;92.40;;;;;;5114710;28;20294;-73
2021/04/11 06:01:09;;;;;;;4.32;2.65;;;13.10;92.70;;;;;;5114511;28;20260;-73
2021/04/11 06:03:42;;;;;;;3.00;2.38;;;13.10;92.60;;;;;;5114481;28;20641;-73
2021/04/11 06:06:14;;;;;;;3.60;3.15;;;13.00;92.00;;;;;;5114533;28;20229;-72
2021/04/11 06:08:48;;;;;;;3.40;2.70;;;13.20;91.90;;;;;;5114647;28;20201;-73
2021/04/11 06:11:21;;;;;;;4.03;2.67;;;13.20;91.30;;;;;;5114336;28;20225;-73
2021/04/11 06:13:56;;;;;;;3.30;2.60;;;13.20;91.70;;;;;;5114184;28;20201;-73
2021/04/11 06:16:26;;;;;;;3.25;2.50;;;13.30;92.30;;;;;;5114085;28;20197;-73
2021/04/11 06:18:54;;;;;;;2.70;2.50;;;13.40;92.20;;;;;;5113321;28;20284;-73
2021/04/11 06:21:25;;;;;;;3.25;2.85;;;13.40;92.80;;;;;;5114417;28;20228;-73
2021/04/11 06:23:56;;;;;;;3.88;2.80;;;13.40;93.20;;;;;;5115113;28;20564;-73
2021/04/11 06:26:31;;;;;;;6.55;3.67;;;13.60;92.70;;;;;;5114687;28;20312;-73
2021/04/11 06:29:02;;;;;;;4.55;3.25;;;13.60;91.80;;;;;;5115150;28;20197;-73
2021/04/11 06:31:33;;;;;;;6.43;3.47;;;13.60;92.60;;;;;;5114954;28;20307;-73
2021/04/11 06:34:07;;;;;;;4.05;3.35;;;13.70;92.70;;;;;;5114930;28;20204;-73
2021/04/11 06:36:38;;;;;;;5.45;3.90;;;13.80;90.70;;;;;;5114753;28;20202;-73
2021/04/11 06:39:09;;;;;;;4.82;3.75;;;13.90;90.70;;;;;;5114629;28;20624;-73
2021/04/11 06:41:58;;;;;;;4.50;4.00;;;13.70;89.60;;;;;;5114322;28;20232;-73
2021/04/11 06:45:02;;;;;;;4.15;3.75;;;13.70;90.60;;;;;;5113793;28;20201;-73
2021/04/11 06:48:10;;;;;;;7.78;3.80;;;13.50;90.90;;;;;;5114481;28;20227;-73
2021/04/11 06:50:53;;;;;;;4.90;3.75;;;13.80;90.90;;;;;;5115655;28;20738;-73
2021/04/11 06:53:47;;;;;;;5.50;3.53;;;14.00;90.60;;;;;;5115926;28;20245;-73
2021/04/11 06:56:32;;;;;;;3.90;3.10;;;14.30;90.60;;;;;;5109468;28;20245;-73
2021/04/11 06:59:12;;;;;;;4.57;3.00;;;14.60;89.80;;;;;;5115206;28;20296;-73
2021/04/11 07:02:23;;;;;;;3.88;3.35;;;14.90;89.20;;;;;;5114942;28;20312;-73
2021/04/11 07:05:05;;;;;;;4.22;3.60;;;15.00;88.20;;;;;;5055834;28;20313;-73
2021/04/11 07:08:28;;;;;;;4.30;3.90;;;15.20;88.20;;;;;;5115075;28;20221;-73
2021/04/11 07:11:23;;;;;;;4.05;3.60;;;15.20;87.00;;;;;;5051821;28;20221;-73
2021/04/11 07:14:23;;;;;;;4.85;3.60;;;15.20;86.50;;;;;;5052398;28;20262;-73
2021/04/11 07:17:07;;;;;;;3.90;2.90;;;15.30;85.90;;;;;;5106569;28;20199;-73
2021/04/11 07:20:03;;;;;;;4.45;3.72;;;15.20;85.60;;;;;;5115683;28;20202;-73
2021/04/11 07:23:02;;;;;;;3.58;2.45;;;15.30;82.40;;;;;;5088871;28;20289;-74
2021/04/11 07:25:57;;;;;;;4.72;3.03;;;15.50;82.10;;;;;;5109536;28;20665;-73
2021/04/11 07:28:43;;;;;;;3.90;2.88;;;15.60;81.40;;;;;;5110921;28;20212;-73
2021/04/11 07:31:22;;;;;;;3.45;2.60;;;15.70;80.80;;;;;;5115313;28;20232;-74
2021/04/11 07:34:01;;;;;;;3.95;2.53;;;15.90;81.20;;;;;;5117303;28;20201;-73
2021/04/11 07:37:01;;;;;;;3.83;2.60;;;16.20;80.20;;;;;;5117108;28;20195;-73
2021/04/11 07:39:45;;;;;;;2.90;2.60;;;16.60;79.30;;;;;;5106058;27;20215;-74
2021/04/11 07:42:40;;;;;;;2.70;2.38;;;16.80;77.30;;;;;;5118238;28;20628;-73
2021/04/11 07:45:21;;;;;;;3.75;2.10;;;16.70;75.50;;;;;;5118042;28;20211;-74
2021/04/11 07:48:33;;;;;;;2.72;2.53;;;16.80;76.20;;;;;;5118068;28;20212;-73
2021/04/11 07:51:28;;;;;;;3.70;2.63;;;16.80;76.30;;;;;;5118376;28;20590;-74
2021/04/11 07:54:34;;;;;;;1.90;1.80;;;16.90;76.90;;;;;;5117893;28;20208;-73
2021/04/11 07:57:23;;;;;;;2.58;1.92;;;16.90;73.30;;;;;;5116769;28;20196;-73
2021/04/11 08:00:06;;;;;;;2.72;1.90;;;16.90;74.60;;;;;;5116809;27;20228;-73
2021/04/11 08:03:02;;;;;;;1.67;1.55;;;16.90;74.90;;;;;;5116635;28;20209;-74
2021/04/11 08:05:50;;;;;;;1.65;1.55;;;17.10;74.70;;;;;;5116612;28;20277;-73
2021/04/11 08:08:31;;;;;;;1.35;1.25;;;17.20;73.70;;;;;;5116510;28;20210;-73
2021/04/11 08:11:26;;;;;;;1.35;1.25;;;17.30;70.50;;;;;;5116732;28;20228;-73
2021/04/11 08:14:06;;;;;;;1.30;1.20;;;17.40;69.60;;;;;;5116979;28;20213;-73
2021/04/11 08:16:52;;;;;;;1.40;1.30;;;17.30;70.00;;;;;;5116197;28;20211;-73
2021/04/11 08:19:47;;;;;;;1.50;1.40;;;17.30;70.30;;;;;;5116234;28;20208;-73
2021/04/11 08:22:37;;;;;;;0.90;0.90;;;17.20;70.30;;;;;;5116107;28;20300;-73
2021/04/11 08:25:17;;;;;;;1.05;1.02;;;17.20;70.00;;;;;;5116188;27;20744;-73
2021/04/11 08:28:26;;;;;;;1.10;1.08;;;17.30;69.80;;;;;;5116040;28;20229;-73
2021/04/11 08:31:13;;;;;;;1.20;1.10;;;17.40;69.10;;;;;;5115939;28;20229;-73
2021/04/11 08:34:24;;;;;;;1.50;1.40;;;17.60;70.90;;;;;;5115850;28;20209;-73
2021/04/11 08:37:08;;;;;;;1.35;1.25;;;18.00;69.50;;;;;;5103128;28;20280;-73
2021/04/11 08:39:47;;;;;;;1.83;1.55;;;18.30;68.70;;;;;;5116744;28;20292;-74
2021/04/11 08:42:24;;;;;;;1.60;1.50;;;18.40;65.60;;;;;;5115117;28;20671;-74
2021/04/11 08:45:09;;;;;;;2.10;1.58;;;18.60;68.20;;;;;;5116771;28;20203;-74
2021/04/11 08:47:46;;;;;;;2.92;1.92;;;18.60;64.80;;;;;;5115690;28;20225;-73
2021/04/11 08:50:18;;;;;;;2.80;2.38;;;18.60;67.20;;;;;;5115962;28;20225;-73
2021/04/11 08:52:53;;;;;;;1.30;1.20;;;18.80;67.50;;;;;;5117099;28;20210;-73
2021/04/11 08:55:29;;;;;;;0.70;0.65;;;19.10;65.00;;;;;;5117342;28;20265;-73
2021/04/11 08:58:27;;;;;;;1.00;0.90;;;19.40;64.10;;;;;;5117962;28;20748;-73
2021/04/11 09:01:06;;;;;;;2.87;0.93;;;19.60;61.60;;;;;;5117754;28;20550;-74
2021/04/11 09:03:47;;;;;;;1.30;1.20;;;19.60;61.80;;;;;;5116227;28;20439;-73
2021/04/11 09:06:24;;;;;;;0.98;0.80;;;19.50;62.30;;;;;;5115564;28;20217;-73
2021/04/11 09:09:10;;;;;;;2.80;0.98;;;19.50;61.60;;;;;;5115799;28;20276;-73
2021/04/11 09:11:45;;;;;;;1.10;1.00;;;19.30;60.30;;;;;;5115573;28;20315;-73
2021/04/11 09:14:26;;;;;;;1.58;1.02;;;19.00;61.40;;;;;;5115260;28;20676;-73
2021/04/11 09:17:07;;;;;;;2.00;1.50;;;18.80;62.90;;;;;;5114944;28;20213;-73
2021/04/11 09:19:40;;;;;;;2.90;1.88;;;18.60;62.80;;;;;;5115134;28;20209;-73
2021/04/11 09:22:15;;;;;;;1.52;1.15;;;18.60;65.20;;;;;;5115358;27;20298;-73
2021/04/11 09:24:46;;;;;;;1.10;1.00;;;18.70;63.00;;;;;;5115277;28;20287;-74
2021/04/11 09:27:49;;;;;;;1.20;1.10;;;18.60;63.10;;;;;;5114913;28;20224;-73
2021/04/11 09:30:43;;;;;;;1.17;1.08;;;18.60;64.00;;;;;;5109535;28;20696;-73
2021/04/11 09:33:22;;;;;;;1.05;0.90;;;18.60;63.10;;;;;;5114988;28;20212;-73
2021/04/11 09:35:55;;;;;;;0.93;0.90;;;18.60;61.90;;;;;;5114661;28;20205;-73
2021/04/11 09:38:59;;;;;;;1.00;0.90;;;18.70;62.90;;;;;;5114884;28;20678;-73
2021/04/11 09:41:45;;;;;;;1.35;1.10;;;18.60;61.70;;;;;;5114917;27;20673;-73
2021/04/11 09:44:25;;;;;;;1.17;0.98;;;18.40;61.40;;;;;;5114586;28;20250;-73
2021/04/11 09:47:04;;;;;;;1.17;1.08;;;18.50;62.40;;;;;;5114416;28;20217;-73
2021/04/11 09:49:42;;;;;;;1.00;0.93;;;18.70;62.00;;;;;;5114671;28;20201;-73
2021/04/11 09:52:50;;;;;;;0.90;0.90;;;19.00;61.30;;;;;;5115268;28;20297;-73
2021/04/11 09:55:22;;;;;;;1.10;1.00;;;19.30;59.90;;;;;;5116011;28;20297;-74
2021/04/11 09:58:18;;;;;;;1.20;1.10;;;19.50;59.80;;;;;;5115854;28;20610;-74
2021/04/11 10:00:54;;;;;;;1.30;1.20;;;20.00;59.60;;;;;;5114207;28;20702;-73
2021/04/11 10:03:37;;;;;;;1.10;1.00;;;20.60;57.30;;;;;;5114187;28;20498;-73
2021/04/11 10:06:18;;;;;;;2.80;1.00;;;21.30;55.90;;;;;;5113894;28;20474;-74
2021/04/11 10:09:09;;;;;;;1.30;1.20;;;22.10;54.10;;;;;;5114141;28;20445;-74
2021/04/11 10:12:05;;;;;;;1.43;1.10;;;22.40;53.20;;;;;;5114077;28;20471;-74
2021/04/11 10:14:53;;;;;;;1.30;1.20;;;23.30;52.80;;;;;;5114308;28;20536;-74
2021/04/11 10:17:32;;;;;;;1.90;1.30;;;24.80;48.00;;;;;;5114054;28;20922;-74
2021/04/11 10:20:10;;;;;;;1.37;1.27;;;25.40;46.50;;;;;;5114385;28;20462;-74
2021/04/11 10:22:42;;;;;;;1.23;1.13;;;26.20;45.10;;;;;;5114164;28;20438;-74
2021/04/11 10:25:18;;;;;;;1.43;1.33;;;26.80;43.90;;;;;;5114089;28;20439;-74
2021/04/11 10:27:55;;;;;;;1.37;1.27;;;27.60;41.20;;;;;;5114188;28;20613;-74
2021/04/11 10:30:22;;;;;;;1.30;1.20;;;28.10;40.90;;;;;;5114205;28;20472;-74
2021/04/11 10:32:53;;;;;;;1.30;1.20;;;27.90;40.10;;;;;;5114269;28;20441;-74
2021/04/11 10:35:25;;;;;;;1.33;1.23;;;27.60;40.20;;;;;;5113934;28;20985;-73
2021/04/11 10:37:56;;;;;;;1.07;1.00;;;26.60;41.10;;;;;;5114058;28;20526;-74
2021/04/11 10:40:45;;;;;;;0.90;0.90;;;25.80;42.60;;;;;;5113838;28;20557;-74
2021/04/11 10:43:29;;;;;;;1.03;1.03;;;25.50;43.20;;;;;;5113859;28;20843;-74
2021/04/11 10:46:03;;;;;;;1.23;1.13;;;25.20;43.20;;;;;;5113585;28;20575;-73
2021/04/11 10:48:58;;;;;;;0.90;0.90;;;24.70;44.20;;;;;;5113885;28;20522;-73
2021/04/11 10:52:05;;;;;;;2.10;1.10;;;23.70;44.50;;;;;;5113558;28;21010;-73
2021/04/11 10:55:02;;;;;;;1.07;1.03;;;22.70;45.60;;;;;;5113631;28;20988;-74
2021/04/11 10:57:56;;;;;;;1.30;1.20;;;22.00;46.80;;;;;;5092521;28;20529;-74
2021/04/11 11:00:28;;;;;;;1.20;1.10;;;21.40;47.70;;;;;;5115987;28;20467;-74
2021/04/11 11:03:46;;;;;;;1.67;1.10;;;20.80;49.20;;;;;;5115766;28;20430;-73
2021/04/11 11:06:33;;;;;;;3.70;2.80;;;20.40;49.20;;;;;;5117673;28;20505;-73
2021/04/11 11:09:16;;;;;;;2.80;2.40;;;20.30;50.30;;;;;;5120378;28;21056;-73
2021/04/11 11:12:12;;;;;;;1.50;1.00;;;20.20;50.70;;;;;;5119744;28;20982;-73
2021/04/11 11:15:08;;;;;;;1.17;1.00;;;20.00;51.30;;;;;;5115247;28;20202;-73
2021/04/11 11:17:56;;;;;;;1.20;1.05;;;19.80;51.80;;;;;;5117803;27;20666;-73
2021/04/11 11:20:26;;;;;;;1.77;1.40;;;19.60;51.60;;;;;;5117660;28;20313;-73
2021/04/11 11:23:20;;;;;;;1.38;1.23;;;19.50;51.90;;;;;;5117978;28;20289;-73
2021/04/11 11:25:59;;;;;;;1.77;1.35;;;19.50;53.30;;;;;;5104732;28;20201;-73
2021/04/11 11:28:54;;;;;;;1.63;1.52;;;19.50;52.60;;;;;;5117983;27;20201;-73
2021/04/11 11:31:50;;;;;;;1.67;1.58;;;19.40;52.70;;;;;;5117920;28;20584;-73
2021/04/11 11:34:28;;;;;;;2.67;1.77;;;19.30;53.20;;;;;;5117708;28;20197;-73
2021/04/11 11:37:06;;;;;;;2.15;1.70;;;19.30;53.70;;;;;;5117211;28;20183;-73
2021/04/11 11:39:42;;;;;;;1.83;1.73;;;19.30;53.50;;;;;;5119256;28;20669;-74
2021/04/11 11:42:18;;;;;;;2.00;1.90;;;19.40;53.50;;;;;;5119665;28;20323;-74
2021/04/11 11:44:58;;;;;;;2.15;1.55;;;19.50;53.40;;;;;;5119617;28;20608;-73
2021/04/11 11:47:32;;;;;;;2.88;1.20;;;19.80;53.50;;;;;;5118811;28;20319;-73
2021/04/11 11:50:04;;;;;;;2.70;1.70;;;20.00;54.30;;;;;;5118902;28;20229;-73
2021/04/11 11:52:39;;;;;;;1.67;1.57;;;20.00;52.40;;;;;;5119480;28;20496;-73
2021/04/11 11:55:16;;;;;;;1.57;1.47;;;20.00;52.30;;;;;;5118796;28;21025;-74
2021/04/11 11:57:48;;;;;;;2.03;1.40;;;20.10;52.80;;;;;;5118210;27;20536;-74
2021/04/11 12:00:18;;;;;;;2.00;1.80;;;20.30;53.10;;;;;;5116954;28;20833;-73
2021/04/11 12:02:56;;;;;;;1.50;1.40;;;20.40;52.20;;;;;;5118284;28;20529;-74
2021/04/11 12:05:26;;;;;;;2.50;1.57;;;20.70;52.50;;;;;;5116771;28;20442;-73
2021/04/11 12:08:02;;;;;;;1.63;1.53;;;21.00;52.00;;;;;;5116504;28;20478;-74
2021/04/11 12:10:31;;;;;;;1.70;1.60;;;21.40;52.00;;;;;;5116658;28;20564;-74
2021/04/11 12:13:10;;;;;;;1.53;1.40;;;21.70;52.00;;;;;;5116542;28;20548;-74
2021/04/11 12:15:43;;;;;;;1.90;1.60;;;21.80;51.00;;;;;;5116593;28;20441;-73
2021/04/11 12:18:14;;;;;;;2.00;1.80;;;21.80;50.00;;;;;;5116697;28;20435;-73
2021/04/11 12:20:49;;;;;;;1.70;1.60;;;21.80;50.60;;;;;;5117041;28;20462;-74
2021/04/11 12:23:24;;;;;;;1.43;1.33;;;21.70;51.00;;;;;;5116902;28;20450;-74
2021/04/11 12:25:51;;;;;;;1.63;1.53;;;21.70;50.60;;;;;;5116185;28;20873;-73
2021/04/11 12:28:24;;;;;;;2.00;1.80;;;21.60;50.90;;;;;;5116145;28;20449;-74
2021/04/11 12:30:52;;;;;;;1.63;1.53;;;21.90;50.30;;;;;;5116201;28;20559;-74
2021/04/11 12:33:29;;;;;;;1.30;1.30;;;22.10;50.60;;;;;;5115978;28;20447;-74
2021/04/11 12:36:04;;;;;;;1.40;1.30;;;22.30;49.60;;;;;;5115922;28;20537;-73
2021/04/11 12:38:38;;;;;;;2.63;1.37;;;22.40;49.00;;;;;;5116097;28;20956;-73
2021/04/11 12:41:12;;;;;;;1.43;1.33;;;22.40;48.90;;;;;;5115778;28;20462;-74
2021/04/11 12:43:47;;;;;;;2.13;1.43;;;22.50;49.20;;;;;;5116131;28;20436;-74
2021/04/11 12:46:34;;;;;;;1.60;1.50;;;22.50;48.60;;;;;;5115791;28;20474;-73
2021/04/11 12:49:08;;;;;;;1.60;1.50;;;22.40;47.80;;;;;;5115905;28;20443;-73
2021/04/11 12:51:40;;;;;;;1.50;1.40;;;22.20;48.90;;;;;;5115801;28;20552;-74
2021/04/11 12:54:13;;;;;;;1.60;1.50;;;21.90;48.80;;;;;;5117773;28;20468;-74
2021/04/11 12:56:42;;;;;;;2.30;1.50;;;21.30;51.90;;;;;;5117419;28;21005;-73
2021/04/11 12:59:16;;;;;;;1.50;1.40;;;21.00;52.90;;;;;;5117882;28;20433;-74
2021/04/11 13:01:45;;;;;;;2.50;2.30;;;20.70;53.60;;;;;;5116814;28;20532;-74
2021/04/11 13:04:25;;;;;;;1.45;1.35;;;20.20;55.50;;;;;;5117605;28;20451;-74
2021/04/11 13:06:59;;;;;;;1.50;1.40;;;20.00;55.90;;;;;;5116476;28;20588;-73
2021/04/11 13:09:37;;;;;;;1.70;1.60;;;19.80;57.20;;;;;;5115986;28;20952;-74
2021/04/11 13:12:11;;;;;;;2.22;1.33;;;19.60;57.30;;;;;;5115683;28;20190;-74
2021/04/11 13:14:41;;;;;;;2.75;2.35;;;19.30;58.00;;;;;;5116407;28;20650;-74
2021/04/11 13:17:12;;;;;;;1.77;1.67;;;19.30;58.10;;;;;;5116005;28;20205;-73
2021/04/11 13:19:49;;;;;;;2.70;2.00;;;19.30;58.70;;;;;;5118205;28;20205;-74
2021/04/11 13:22:21;;;;;;;1.90;1.50;;;19.60;58.70;;;;;;5117217;28;20514;-74
2021/04/11 13:24:57;;;;;;;1.57;1.47;;;19.90;57.70;;;;;;5116853;28;20208;-74
2021/04/11 13:27:28;;;;;;;1.50;1.40;;;19.70;56.80;;;;;;5116594;27;20481;-73
2021/04/11 13:30:09;;;;;;;1.48;1.38;;;19.60;58.10;;;;;;5116686;28;20312;-73
2021/04/11 13:32:44;;;;;;;1.80;1.40;;;19.40;57.40;;;;;;5115356;28;20186;-73
2021/04/11 13:35:21;;;;;;;1.90;1.40;;;19.00;58.20;;;;;;5114975;28;20217;-73
2021/04/11 13:37:51;;;;;;;1.90;1.80;;;18.90;58.70;;;;;;5115120;28;20205;-73